Time;durP1;ratioP1;P1;durP2;ratioP2;P2;SDS_P1;SDS_P2;PMS_P1;PMS_P2;Temp;Humidity;BMP_temperature;BMP_pressure;BME280_temperature;BME280_humidity;BME280_pressure;Samples;Min_cycle;Max_cycle;Signal;HPM_P1;HPM_P2
2022/08/10 00:00:19;;;;;;;4.43;1.92;;;15.30;99.90;;;;;;5077942;28;20052;-69
2022/08/10 00:02:49;;;;;;;2.78;1.48;;;15.30;99.90;;;;;;5077924;28;20048;-69
2022/08/10 00:05:15;;;;;;;4.95;2.08;;;15.30;99.90;;;;;;5077928;28;20338;-69
2022/08/10 00:07:41;;;;;;;4.20;1.73;;;15.30;99.90;;;;;;5077617;28;20055;-69
2022/08/10 00:10:08;;;;;;;3.28;1.73;;;15.10;99.90;;;;;;5077945;28;20056;-69
2022/08/10 00:12:33;;;;;;;3.45;1.85;;;15.20;99.90;;;;;;5073476;28;20361;-69
2022/08/10 00:14:59;;;;;;;2.97;1.85;;;15.10;99.90;;;;;;5057762;28;20048;-69
2022/08/10 00:17:26;;;;;;;4.05;1.60;;;15.10;99.90;;;;;;5057556;28;20489;-69
2022/08/10 00:19:51;;;;;;;2.75;1.35;;;15.10;99.90;;;;;;5057451;28;20148;-69
2022/08/10 00:22:17;;;;;;;3.13;1.88;;;15.10;99.90;;;;;;5057531;28;20084;-69
2022/08/10 00:24:43;;;;;;;3.13;1.75;;;14.90;99.90;;;;;;5057265;28;20056;-69
2022/08/10 00:27:08;;;;;;;5.88;1.80;;;15.00;99.90;;;;;;5059415;28;20052;-69
2022/08/10 00:29:34;;;;;;;3.28;1.90;;;15.00;99.90;;;;;;5066425;28;20041;-69
2022/08/10 00:31:59;;;;;;;3.70;2.13;;;14.90;99.90;;;;;;5058005;28;20106;-68
2022/08/10 00:34:30;;;;;;;4.18;2.33;;;14.90;99.90;;;;;;5057402;28;20048;-69
2022/08/10 00:36:57;;;;;;;4.93;2.58;;;14.90;99.90;;;;;;5056875;28;20053;-69
2022/08/10 00:39:23;;;;;;;4.78;2.33;;;14.90;99.90;;;;;;5057067;28;20048;-69
2022/08/10 00:41:49;;;;;;;3.53;1.85;;;14.90;99.90;;;;;;5057071;28;20045;-69
2022/08/10 00:44:15;;;;;;;5.55;2.78;;;14.90;99.90;;;;;;5059161;28;20124;-69
2022/08/10 00:46:40;;;;;;;6.28;2.50;;;14.90;99.90;;;;;;5076424;28;20040;-69
2022/08/10 00:49:06;;;;;;;5.07;2.30;;;14.90;99.90;;;;;;5077033;28;20116;-69
2022/08/10 00:51:32;;;;;;;6.55;3.03;;;14.90;99.90;;;;;;5077451;28;20109;-69
2022/08/10 00:53:57;;;;;;;6.93;2.70;;;14.90;99.90;;;;;;5076823;28;20048;-69
2022/08/10 00:56:23;;;;;;;5.05;2.70;;;14.90;99.90;;;;;;5076814;28;20051;-69
2022/08/10 00:58:49;;;;;;;5.95;3.05;;;14.90;99.90;;;;;;5058236;28;20084;-69
2022/08/10 01:01:14;;;;;;;4.95;2.90;;;15.00;99.90;;;;;;5072055;28;20072;-69
2022/08/10 01:03:40;;;;;;;6.43;2.80;;;14.90;99.90;;;;;;5056792;28;20041;-69
2022/08/10 01:06:11;;;;;;;6.90;3.60;;;15.00;99.90;;;;;;5056427;28;20437;-69
2022/08/10 01:09:01;;;;;;;6.97;3.72;;;15.00;99.90;;;;;;5057309;28;20117;-69
2022/08/10 01:11:49;;;;;;;4.22;2.78;;;15.00;99.90;;;;;;5056635;28;20125;-69
2022/08/10 01:14:33;;;;;;;5.50;3.45;;;15.00;99.90;;;;;;5056441;28;20055;-69
2022/08/10 01:17:23;;;;;;;6.45;3.90;;;15.00;99.90;;;;;;5056911;28;20052;-69
2022/08/10 01:20:19;;;;;;;9.95;3.63;;;15.00;99.90;;;;;;5066819;28;20045;-69
2022/08/10 01:22:44;;;;;;;7.90;4.25;;;15.00;99.90;;;;;;5076322;28;20100;-69
2022/08/10 01:25:35;;;;;;;6.13;3.05;;;15.00;99.90;;;;;;5076362;28;20084;-69
2022/08/10 01:28:18;;;;;;;6.45;3.25;;;15.00;99.90;;;;;;5075974;28;20467;-69
2022/08/10 01:30:45;;;;;;;8.27;3.83;;;15.00;99.90;;;;;;5075436;28;20080;-69
2022/08/10 01:33:23;;;;;;;5.78;3.28;;;15.10;99.90;;;;;;5075894;28;20055;-69
2022/08/10 01:35:56;;;;;;;6.95;3.67;;;15.00;99.90;;;;;;5036376;28;20137;-69
2022/08/10 01:38:33;;;;;;;5.10;3.30;;;15.00;99.90;;;;;;5035970;28;20128;-69
2022/08/10 01:41:07;;;;;;;7.90;4.22;;;15.00;99.90;;;;;;5036326;28;20276;-69
2022/08/10 01:43:39;;;;;;;7.70;3.90;;;15.00;99.90;;;;;;5036596;28;20489;-69
2022/08/10 01:46:07;;;;;;;9.05;4.78;;;15.00;99.90;;;;;;5035950;28;20135;-69
2022/08/10 01:48:44;;;;;;;6.00;3.28;;;15.10;99.90;;;;;;5044565;28;20045;-69
2022/08/10 01:51:18;;;;;;;7.45;3.85;;;15.10;99.90;;;;;;5074143;28;20044;-69
2022/08/10 01:53:53;;;;;;;7.72;4.25;;;15.10;99.90;;;;;;5075207;28;20091;-69
2022/08/10 01:56:23;;;;;;;7.30;4.53;;;15.10;99.90;;;;;;5075747;28;20048;-68
2022/08/10 01:58:54;;;;;;;12.80;5.30;;;15.10;99.90;;;;;;5075582;28;20048;-69
2022/08/10 02:01:24;;;;;;;8.65;4.68;;;15.10;99.90;;;;;;5075659;28;20056;-69
2022/08/10 02:03:52;;;;;;;7.78;4.65;;;15.20;99.90;;;;;;5075521;28;20045;-69
2022/08/10 02:06:21;;;;;;;10.55;4.88;;;15.30;99.90;;;;;;5075446;28;20080;-69
2022/08/10 02:08:48;;;;;;;7.97;4.28;;;15.20;99.90;;;;;;5055262;28;20103;-69
2022/08/10 02:11:17;;;;;;;8.70;4.15;;;15.30;99.90;;;;;;5055336;28;20046;-69
2022/08/10 02:13:43;;;;;;;9.88;4.38;;;15.20;99.90;;;;;;5055464;28;20053;-70
2022/08/10 02:16:10;;;;;;;8.55;4.10;;;15.20;99.90;;;;;;5055506;28;20045;-69
2022/08/10 02:18:36;;;;;;;8.85;4.28;;;15.20;99.90;;;;;;5055213;28;20094;-70
2022/08/10 02:21:07;;;;;;;11.55;4.65;;;15.10;99.90;;;;;;5055040;28;20056;-69
2022/08/10 02:23:36;;;;;;;8.98;4.75;;;15.20;99.90;;;;;;5074999;28;20101;-69
2022/08/10 02:26:04;;;;;;;10.50;4.45;;;15.20;99.90;;;;;;5074959;28;20044;-70
2022/08/10 02:28:32;;;;;;;9.57;5.18;;;15.20;99.90;;;;;;5075401;28;20123;-69
2022/08/10 02:31:05;;;;;;;12.15;5.63;;;15.30;99.90;;;;;;5075361;28;20052;-70
2022/08/10 02:33:33;;;;;;;20.70;5.25;;;15.20;99.90;;;;;;5075302;28;20033;-69
2022/08/10 02:36:03;;;;;;;12.40;5.60;;;15.20;99.90;;;;;;5072730;28;20145;-69
2022/08/10 02:38:36;;;;;;;7.13;4.75;;;15.10;99.90;;;;;;5055008;28;20392;-69
2022/08/10 02:41:17;;;;;;;8.40;4.35;;;15.30;99.90;;;;;;5054964;28;20079;-69
2022/08/10 02:43:50;;;;;;;11.13;4.85;;;15.20;99.90;;;;;;5055007;28;20045;-69
2022/08/10 02:46:27;;;;;;;13.77;5.30;;;15.20;99.90;;;;;;5055284;28;20346;-69
2022/08/10 02:49:02;;;;;;;10.60;5.50;;;15.20;99.90;;;;;;5054807;28;20147;-69
2022/08/10 02:51:47;;;;;;;8.73;5.45;;;15.20;99.90;;;;;;5062618;28;20049;-70
2022/08/10 02:54:33;;;;;;;11.32;6.57;;;15.30;99.90;;;;;;5075462;28;20040;-69
2022/08/10 02:57:07;;;;;;;10.93;5.70;;;15.20;99.90;;;;;;5074796;28;20052;-69
2022/08/10 02:59:56;;;;;;;13.45;6.63;;;15.20;99.90;;;;;;5075267;28;20353;-69
2022/08/10 03:02:27;;;;;;;16.83;5.88;;;15.30;99.90;;;;;;5074822;28;20045;-69
2022/08/10 03:04:59;;;;;;;11.10;6.35;;;15.20;99.90;;;;;;5075132;28;20078;-69
2022/08/10 03:07:28;;;;;;;9.52;5.40;;;15.30;99.90;;;;;;5056341;28;20098;-70
2022/08/10 03:09:54;;;;;;;14.65;6.53;;;15.20;99.90;;;;;;5054545;28;20045;-69
2022/08/10 03:12:21;;;;;;;10.52;4.80;;;15.20;99.90;;;;;;5037793;28;20073;-69
2022/08/10 03:14:48;;;;;;;8.13;4.60;;;15.20;99.90;;;;;;5054841;28;20072;-69
2022/08/10 03:17:15;;;;;;;16.65;6.95;;;15.20;99.90;;;;;;5054834;28;20453;-70
2022/08/10 03:19:43;;;;;;;16.42;6.72;;;15.20;99.90;;;;;;5054542;28;20041;-69
2022/08/10 03:22:10;;;;;;;13.57;5.57;;;15.20;99.90;;;;;;5075313;28;20048;-69
2022/08/10 03:24:36;;;;;;;11.65;6.68;;;15.20;99.90;;;;;;5078405;28;20040;-70
2022/08/10 03:27:03;;;;;;;11.75;5.55;;;15.20;99.90;;;;;;5078341;28;20143;-69
2022/08/10 03:29:30;;;;;;;10.20;5.97;;;15.20;99.90;;;;;;5078695;28;20505;-69
2022/08/10 03:31:58;;;;;;;10.05;6.05;;;15.20;99.90;;;;;;5078621;28;20072;-69
2022/08/10 03:34:25;;;;;;;11.55;5.50;;;15.10;99.90;;;;;;5078190;28;20444;-69
2022/08/10 03:36:51;;;;;;;9.30;5.82;;;15.10;99.90;;;;;;5078576;28;20356;-69
2022/08/10 03:39:16;;;;;;;11.23;6.03;;;15.10;99.90;;;;;;5075645;28;20045;-69
2022/08/10 03:41:56;;;;;;;10.77;6.18;;;15.10;99.90;;;;;;5076713;28;20387;-69
2022/08/10 03:44:29;;;;;;;14.82;6.53;;;15.10;99.90;;;;;;5078033;28;20447;-69
2022/08/10 03:46:59;;;;;;;12.93;6.57;;;15.10;99.90;;;;;;5078139;28;20471;-69
2022/08/10 03:49:26;;;;;;;12.98;7.30;;;15.10;99.90;;;;;;5078224;28;20373;-69
2022/08/10 03:51:53;;;;;;;10.15;5.47;;;15.10;99.90;;;;;;5078113;28;20101;-70
2022/08/10 03:54:19;;;;;;;10.73;6.30;;;15.00;99.90;;;;;;5073172;28;20047;-70
2022/08/10 03:56:46;;;;;;;13.27;6.20;;;15.00;99.90;;;;;;5057880;28;20056;-69
2022/08/10 03:59:14;;;;;;;12.10;5.95;;;15.00;99.90;;;;;;5057624;28;20389;-69
2022/08/10 04:01:44;;;;;;;14.43;6.35;;;15.10;99.90;;;;;;5058008;28;20037;-69
2022/08/10 04:04:10;;;;;;;12.95;5.82;;;15.00;99.90;;;;;;5058178;28;20076;-69
2022/08/10 04:06:36;;;;;;;11.57;5.35;;;15.00;99.90;;;;;;5057754;28;20044;-69
2022/08/10 04:09:03;;;;;;;12.80;6.00;;;15.00;99.90;;;;;;5044336;28;20032;-69
2022/08/10 04:11:28;;;;;;;13.50;6.82;;;15.00;99.90;;;;;;5076821;28;20048;-69
2022/08/10 04:13:54;;;;;;;13.20;5.72;;;14.90;99.90;;;;;;5077373;28;20060;-69
2022/08/10 04:16:19;;;;;;;9.65;5.68;;;14.90;99.90;;;;;;5077867;28;20124;-69
2022/08/10 04:18:45;;;;;;;13.48;6.18;;;14.90;99.90;;;;;;5077754;28;20445;-70
2022/08/10 04:21:15;;;;;;;10.10;6.28;;;15.00;99.90;;;;;;5077602;28;20526;-69
2022/08/10 04:23:45;;;;;;;12.70;6.43;;;15.00;99.90;;;;;;5077608;28;20059;-69
2022/08/10 04:26:11;;;;;;;10.30;5.05;;;15.00;99.90;;;;;;5062324;28;20365;-69
2022/08/10 04:28:38;;;;;;;9.10;5.57;;;15.00;99.90;;;;;;5057383;28;20075;-69
2022/08/10 04:31:06;;;;;;;11.35;6.22;;;15.10;99.90;;;;;;5057143;28;20060;-69
2022/08/10 04:33:33;;;;;;;10.63;6.10;;;15.10;99.90;;;;;;5057575;28;20037;-69
2022/08/10 04:36:02;;;;;;;12.60;6.65;;;15.10;99.90;;;;;;5057439;28;20084;-69
2022/08/10 04:38:29;;;;;;;9.75;5.38;;;15.20;99.90;;;;;;5056993;28;20083;-70
2022/08/10 04:40:55;;;;;;;11.27;6.57;;;15.10;99.90;;;;;;5057236;28;20053;-69
2022/08/10 04:43:21;;;;;;;13.55;5.97;;;15.20;99.90;;;;;;5057880;28;20051;-70
2022/08/10 04:45:47;;;;;;;12.73;6.22;;;15.20;99.90;;;;;;5071465;28;20051;-69
2022/08/10 04:48:12;;;;;;;11.23;5.82;;;15.30;99.90;;;;;;5076986;28;20070;-69
2022/08/10 04:50:38;;;;;;;10.38;4.90;;;15.30;99.90;;;;;;5076904;28;20055;-69
2022/08/10 04:53:03;;;;;;;16.02;6.40;;;15.20;99.90;;;;;;5041641;28;20057;-69
2022/08/10 04:55:29;;;;;;;11.85;5.90;;;15.30;99.90;;;;;;5076949;28;20036;-69
2022/08/10 04:57:55;;;;;;;11.15;4.32;;;15.30;99.90;;;;;;5076565;28;20113;-69
2022/08/10 05:00:20;;;;;;;9.60;5.15;;;15.30;99.90;;;;;;5063098;28;20087;-69
2022/08/10 05:02:46;;;;;;;11.18;5.85;;;15.40;99.90;;;;;;5056784;28;20033;-69
2022/08/10 05:05:11;;;;;;;10.77;6.40;;;15.40;99.90;;;;;;5056834;28;20055;-69
2022/08/10 05:07:37;;;;;;;15.30;6.43;;;15.50;99.90;;;;;;5056559;28;20555;-69
2022/08/10 05:10:03;;;;;;;8.52;4.88;;;15.60;99.90;;;;;;5056136;28;20465;-69
2022/08/10 05:12:29;;;;;;;10.25;5.65;;;15.60;99.90;;;;;;5057247;28;20037;-69
2022/08/10 05:14:54;;;;;;;10.63;5.60;;;15.70;99.90;;;;;;5067880;28;20041;-69
2022/08/10 05:17:21;;;;;;;12.07;6.20;;;15.70;99.90;;;;;;5076116;28;20388;-70
2022/08/10 05:19:47;;;;;;;14.13;6.78;;;15.80;99.90;;;;;;5076543;28;20049;-69
2022/08/10 05:22:12;;;;;;;15.07;7.47;;;15.80;99.90;;;;;;5076043;28;20064;-70
2022/08/10 05:24:38;;;;;;;11.15;5.75;;;15.90;99.90;;;;;;5076540;28;20055;-69
2022/08/10 05:27:05;;;;;;;8.73;4.88;;;16.00;99.90;;;;;;5076178;28;20052;-69
2022/08/10 05:29:31;;;;;;;11.75;6.05;;;16.00;99.90;;;;;;5076349;28;20044;-70
2022/08/10 05:31:58;;;;;;;8.85;5.65;;;16.10;99.90;;;;;;5064747;28;20064;-69
2022/08/10 05:34:26;;;;;;;9.38;4.97;;;16.20;99.90;;;;;;5056310;28;20045;-69
2022/08/10 05:36:56;;;;;;;8.75;4.70;;;16.20;99.90;;;;;;5056138;28;20044;-69
2022/08/10 05:39:22;;;;;;;11.55;5.28;;;16.40;99.90;;;;;;5055848;28;20041;-69
2022/08/10 05:41:51;;;;;;;11.23;5.25;;;16.40;99.90;;;;;;5056190;28;20056;-69
2022/08/10 05:44:17;;;;;;;8.52;4.57;;;16.50;99.90;;;;;;5055230;28;20095;-69
2022/08/10 05:46:43;;;;;;;8.73;4.32;;;16.80;99.90;;;;;;5066694;28;20048;-70
2022/08/10 05:49:09;;;;;;;15.90;5.95;;;17.40;99.90;;;;;;5075970;28;20461;-70
2022/08/10 05:51:35;;;;;;;7.38;4.38;;;18.40;99.90;;;;;;5075892;28;20059;-70
2022/08/10 05:54:01;;;;;;;6.60;4.07;;;19.50;99.90;;;;;;5076029;28;20120;-69
2022/08/10 05:56:27;;;;;;;8.82;4.10;;;20.60;99.90;;;;;;5075980;28;20385;-70
2022/08/10 05:58:53;;;;;;;6.47;4.25;;;21.40;99.90;;;;;;5075845;28;20041;-70
2022/08/10 06:01:23;;;;;;;5.63;3.53;;;22.20;99.90;;;;;;5065618;28;20045;-70
2022/08/10 06:03:57;;;;;;;8.57;3.30;;;22.80;99.90;;;;;;5055853;28;20342;-70
2022/08/10 06:06:26;;;;;;;7.05;2.90;;;23.50;99.90;;;;;;5055792;28;20049;-70
2022/08/10 06:08:52;;;;;;;6.22;2.80;;;24.10;99.90;;;;;;5055480;28;20148;-70
2022/08/10 06:11:19;;;;;;;4.25;2.70;;;24.50;99.90;;;;;;5056135;28;20322;-70
2022/08/10 06:16:37;;;;;;;5.70;3.00;;;25.50;99.90;;;;;;5069316;28;20060;-70
2022/08/10 06:19:03;;;;;;;5.20;2.22;;;26.10;99.90;;;;;;5075015;28;20451;-70
2022/08/10 06:21:30;;;;;;;4.38;2.60;;;26.40;99.90;;;;;;5075706;28;20364;-70
2022/08/10 06:23:59;;;;;;;3.70;2.38;;;26.50;99.80;;;;;;5075837;28;20048;-70
2022/08/10 06:26:25;;;;;;;9.18;2.92;;;26.20;99.90;;;;;;5075233;28;20044;-71
2022/08/10 06:29:01;;;;;;;5.10;2.17;;;26.40;99.90;;;;;;5075472;28;20033;-71
2022/08/10 06:31:28;;;;;;;5.53;2.22;;;26.60;99.10;;;;;;5059746;28;20040;-70
2022/08/10 06:33:56;;;;;;;5.63;2.67;;;27.30;98.50;;;;;;5055518;28;20048;-71
2022/08/10 06:36:25;;;;;;;3.85;2.20;;;27.80;98.90;;;;;;5055120;28;20052;-71
2022/08/10 06:38:52;;;;;;;4.90;2.42;;;28.10;97.70;;;;;;5055202;28;20051;-71
2022/08/10 06:41:23;;;;;;;4.68;2.17;;;28.50;97.00;;;;;;5055231;28;20120;-71
2022/08/10 06:44:15;;;;;;;11.73;2.00;;;28.60;96.50;;;;;;5055181;28;20128;-71
2022/08/10 06:46:47;;;;;;;3.25;1.80;;;28.70;95.50;;;;;;5073839;28;20048;-70
2022/08/10 06:49:15;;;;;;;4.90;2.20;;;28.50;95.80;;;;;;5075676;28;20048;-70
2022/08/10 06:51:42;;;;;;;3.63;1.77;;;28.20;95.90;;;;;;5075154;28;20044;-71
2022/08/10 06:54:10;;;;;;;3.50;1.85;;;28.90;95.50;;;;;;5074582;28;20052;-71
2022/08/10 06:56:40;;;;;;;4.93;2.28;;;29.00;95.60;;;;;;5079627;28;20337;-70
2022/08/10 06:59:17;;;;;;;4.30;2.25;;;28.30;96.10;;;;;;5079037;28;20044;-70
2022/08/10 07:01:47;;;;;;;3.67;1.98;;;27.50;95.70;;;;;;5077369;28;20059;-70
2022/08/10 07:04:25;;;;;;;4.78;1.83;;;26.50;97.10;;;;;;5079368;28;20036;-70
2022/08/10 07:06:53;;;;;;;6.20;1.75;;;26.00;97.80;;;;;;5079450;28;20137;-70
2022/08/10 07:09:20;;;;;;;5.70;1.90;;;25.60;98.00;;;;;;5079189;28;20048;-70
2022/08/10 07:11:47;;;;;;;4.13;1.63;;;25.60;98.50;;;;;;5079018;28;20090;-70
2022/08/10 07:14:16;;;;;;;5.22;1.70;;;25.80;98.20;;;;;;5078771;28;20052;-70
2022/08/10 07:16:44;;;;;;;5.80;2.00;;;26.00;97.40;;;;;;5070530;28;20081;-70
2022/08/10 07:19:11;;;;;;;5.07;2.10;;;26.50;97.60;;;;;;5058843;28;20091;-71
2022/08/10 07:21:38;;;;;;;8.85;2.50;;;26.70;97.20;;;;;;5056594;28;20045;-71
2022/08/10 07:24:08;;;;;;;3.70;1.70;;;27.00;97.40;;;;;;5058771;28;20053;-70
2022/08/10 07:26:36;;;;;;;3.58;1.98;;;27.10;96.40;;;;;;5062116;28;20465;-70
2022/08/10 07:29:04;;;;;;;4.63;2.25;;;27.40;96.70;;;;;;5078602;28;20372;-70
2022/08/10 07:31:30;;;;;;;4.82;1.63;;;27.60;95.80;;;;;;5077619;28;20051;-70
2022/08/10 07:33:58;;;;;;;4.53;1.48;;;27.80;95.90;;;;;;5079108;28;20044;-70
2022/08/10 07:36:25;;;;;;;4.47;1.80;;;27.90;96.20;;;;;;5078561;28;20387;-70
2022/08/10 07:38:53;;;;;;;3.50;1.70;;;28.30;95.30;;;;;;5078227;28;20115;-70
2022/08/10 07:41:22;;;;;;;6.13;1.90;;;28.50;95.50;;;;;;5078253;28;20080;-71
2022/08/10 07:43:50;;;;;;;4.82;1.80;;;28.40;94.80;;;;;;5078245;28;20460;-70
2022/08/10 07:46:18;;;;;;;5.43;1.88;;;28.90;95.30;;;;;;5058269;28;20064;-70
2022/08/10 07:48:47;;;;;;;4.32;2.20;;;28.70;94.90;;;;;;5058452;28;20033;-71
2022/08/10 07:51:17;;;;;;;6.20;2.00;;;28.60;95.00;;;;;;5058136;28;20080;-70
2022/08/10 07:53:46;;;;;;;3.38;1.83;;;28.70;94.70;;;;;;5058041;28;20114;-71
2022/08/10 07:56:14;;;;;;;4.00;1.60;;;28.70;94.80;;;;;;5057880;28;20449;-70
2022/08/10 07:58:49;;;;;;;2.83;1.50;;;28.80;94.70;;;;;;5057855;28;20059;-71
2022/08/10 08:01:16;;;;;;;3.92;1.80;;;29.20;94.30;;;;;;5077365;28;20411;-71
2022/08/10 08:03:43;;;;;;;3.67;1.75;;;29.00;94.30;;;;;;5077633;28;20083;-71
2022/08/10 08:06:12;;;;;;;5.20;1.42;;;29.30;94.60;;;;;;5077486;28;20049;-70
2022/08/10 08:08:40;;;;;;;3.67;1.40;;;29.10;93.60;;;;;;5078180;28;20113;-70
2022/08/10 08:11:07;;;;;;;2.30;1.25;;;29.50;94.00;;;;;;5078467;28;20048;-70
2022/08/10 08:13:33;;;;;;;4.70;1.50;;;29.80;94.00;;;;;;5075751;28;20080;-70
2022/08/10 08:16:03;;;;;;;12.68;1.92;;;29.80;93.40;;;;;;5057586;28;20047;-70
2022/08/10 08:18:30;;;;;;;3.13;1.20;;;29.80;93.90;;;;;;5057604;28;20041;-70
2022/08/10 08:20:57;;;;;;;5.75;1.30;;;29.70;92.90;;;;;;5057639;28;20115;-70
2022/08/10 08:23:24;;;;;;;2.92;1.20;;;29.70;93.20;;;;;;5057677;28;20128;-71
2022/08/10 08:25:51;;;;;;;3.20;1.10;;;29.80;93.10;;;;;;5058151;28;20044;-70
2022/08/10 08:28:17;;;;;;;2.88;1.23;;;30.10;92.90;;;;;;5058545;28;20101;-70
2022/08/10 08:30:44;;;;;;;2.80;1.42;;;29.90;92.80;;;;;;5077875;28;20051;-70
2022/08/10 08:33:12;;;;;;;2.45;1.17;;;30.00;92.90;;;;;;5077406;28;20352;-70
2022/08/10 08:35:38;;;;;;;3.85;1.40;;;30.10;93.50;;;;;;5077623;28;20447;-70
2022/08/10 08:38:05;;;;;;;3.97;1.42;;;30.30;93.20;;;;;;5056531;28;20132;-70
2022/08/10 08:40:35;;;;;;;4.07;1.40;;;30.50;93.00;;;;;;5076748;28;20056;-70
2022/08/10 08:43:20;;;;;;;2.78;1.15;;;30.70;92.30;;;;;;5075155;28;20511;-71
2022/08/10 08:46:20;;;;;;;4.80;1.63;;;30.70;91.30;;;;;;5057690;28;20131;-70
2022/08/10 08:49:15;;;;;;;2.55;1.15;;;30.20;91.70;;;;;;5056800;28;20044;-70
2022/08/10 08:51:59;;;;;;;7.95;2.17;;;29.70;92.10;;;;;;5056947;28;20396;-71
2022/08/10 08:54:45;;;;;;;5.68;2.17;;;29.30;91.80;;;;;;5057561;28;20114;-70
2022/08/10 08:57:27;;;;;;;4.90;1.67;;;29.30;92.40;;;;;;5057067;28;20045;-70
2022/08/10 09:00:13;;;;;;;7.78;1.60;;;29.20;92.10;;;;;;5075104;28;20326;-70
2022/08/10 09:02:52;;;;;;;3.10;1.23;;;29.30;93.00;;;;;;5076963;28;20169;-70
2022/08/10 09:05:39;;;;;;;2.60;1.35;;;29.20;92.50;;;;;;5076732;28;20059;-70
2022/08/10 09:08:42;;;;;;;7.22;1.90;;;29.20;92.40;;;;;;5076439;28;20056;-70
2022/08/10 09:11:29;;;;;;;8.00;1.50;;;29.00;92.50;;;;;;5076887;28;20044;-70
2022/08/10 09:14:00;;;;;;;3.55;1.33;;;28.70;92.80;;;;;;5063763;28;20045;-70
2022/08/10 09:16:36;;;;;;;2.72;1.35;;;28.40;92.90;;;;;;5073358;28;20349;-71
2022/08/10 09:19:40;;;;;;;2.10;1.10;;;28.00;93.20;;;;;;5075311;28;20441;-70
2022/08/10 09:22:14;;;;;;;3.13;1.30;;;27.60;93.60;;;;;;5075992;28;20377;-71
2022/08/10 09:24:55;;;;;;;5.18;1.48;;;27.20;93.60;;;;;;5076637;28;20175;-70
2022/08/10 09:27:25;;;;;;;4.25;1.38;;;27.00;93.80;;;;;;5076221;28;20136;-70
2022/08/10 09:29:58;;;;;;;4.13;1.30;;;26.70;93.90;;;;;;5070017;28;20063;-70
2022/08/10 09:32:39;;;;;;;4.05;1.30;;;26.70;94.10;;;;;;5056191;28;20056;-70
2022/08/10 09:35:12;;;;;;;3.03;1.10;;;26.40;93.80;;;;;;5055995;28;20077;-70
2022/08/10 09:37:57;;;;;;;2.78;1.35;;;26.30;94.10;;;;;;5055889;28;20477;-70
2022/08/10 09:40:45;;;;;;;3.60;1.10;;;26.40;94.10;;;;;;5056260;28;20113;-70
2022/08/10 09:43:29;;;;;;;4.05;1.38;;;26.80;94.10;;;;;;5056143;28;20045;-70
2022/08/10 09:46:04;;;;;;;4.68;1.48;;;27.20;93.40;;;;;;5072469;28;20052;-70
2022/08/10 09:48:40;;;;;;;3.92;1.40;;;27.50;93.80;;;;;;5076046;28;20036;-70
2022/08/10 09:51:23;;;;;;;3.00;1.13;;;28.10;93.50;;;;;;5075766;28;20037;-70
2022/08/10 09:53:55;;;;;;;5.40;1.63;;;28.20;93.60;;;;;;5075649;28;20123;-69
2022/08/10 09:56:45;;;;;;;4.75;1.45;;;27.80;93.10;;;;;;5058449;28;20358;-70
2022/08/10 09:59:29;;;;;;;3.55;1.33;;;27.40;93.40;;;;;;5071043;28;20116;-70
2022/08/10 10:02:07;;;;;;;3.42;1.00;;;27.20;93.40;;;;;;5055741;28;20049;-70
2022/08/10 10:04:57;;;;;;;4.72;1.40;;;27.00;93.70;;;;;;5055574;28;20055;-70
2022/08/10 10:07:25;;;;;;;5.55;1.60;;;26.80;93.60;;;;;;5055675;28;20048;-70
2022/08/10 10:10:00;;;;;;;2.08;0.85;;;26.70;93.50;;;;;;5055654;28;20048;-70
2022/08/10 10:12:43;;;;;;;5.80;1.10;;;26.80;93.80;;;;;;5054917;28;20048;-70
2022/08/10 10:15:25;;;;;;;6.72;1.58;;;26.90;93.40;;;;;;5069753;28;20044;-70
2022/08/10 10:18:03;;;;;;;2.88;0.90;;;27.00;93.10;;;;;;5075522;28;20040;-70
2022/08/10 10:20:50;;;;;;;3.08;1.05;;;27.00;93.70;;;;;;5075558;28;20334;-70
2022/08/10 10:23:33;;;;;;;2.58;1.50;;;27.00;93.50;;;;;;5075976;28;20164;-70
2022/08/10 10:26:02;;;;;;;2.00;1.08;;;26.90;92.70;;;;;;5076020;28;20161;-70
2022/08/10 10:28:56;;;;;;;2.53;1.52;;;27.00;93.40;;;;;;5072686;28;20056;-70
2022/08/10 10:31:50;;;;;;;1.63;0.80;;;26.80;92.90;;;;;;5059855;28;20453;-70
2022/08/10 10:34:28;;;;;;;2.45;1.08;;;27.00;93.50;;;;;;5075601;28;20041;-70
2022/08/10 10:36:55;;;;;;;5.55;1.15;;;27.00;92.60;;;;;;5075140;28;20049;-70
2022/08/10 10:39:23;;;;;;;3.42;1.05;;;27.20;93.00;;;;;;5075051;28;20056;-70
2022/08/10 10:42:22;;;;;;;2.38;1.10;;;27.30;92.80;;;;;;5074599;28;20449;-70
2022/08/10 10:45:13;;;;;;;5.82;1.10;;;27.50;93.50;;;;;;5050856;28;20067;-71
2022/08/10 10:47:58;;;;;;;3.28;1.88;;;27.60;92.70;;;;;;5038898;28;20053;-71
2022/08/10 10:50:57;;;;;;;3.92;1.35;;;27.50;92.00;;;;;;5055391;28;20346;-70
2022/08/10 10:53:59;;;;;;;2.38;1.10;;;27.40;92.20;;;;;;5055006;28;20069;-70
2022/08/10 10:56:49;;;;;;;3.13;1.42;;;27.40;93.00;;;;;;5055612;28;20123;-70
2022/08/10 10:59:37;;;;;;;2.35;1.35;;;27.30;92.00;;;;;;5055421;28;20041;-70
2022/08/10 11:02:20;;;;;;;4.70;1.30;;;27.40;92.50;;;;;;5051982;28;20144;-69
2022/08/10 11:05:15;;;;;;;3.13;1.05;;;27.40;92.20;;;;;;5075175;28;20052;-70
2022/08/10 11:07:52;;;;;;;2.92;1.20;;;27.70;92.60;;;;;;5074498;28;20052;-70
2022/08/10 11:10:21;;;;;;;1.63;1.10;;;27.70;92.40;;;;;;5074808;28;20044;-70
2022/08/10 11:13:11;;;;;;;4.03;1.25;;;27.70;92.20;;;;;;5075054;28;20334;-70
2022/08/10 11:15:37;;;;;;;2.60;1.17;;;27.70;91.90;;;;;;5068583;28;20037;-70
2022/08/10 11:18:07;;;;;;;1.88;0.85;;;27.50;92.00;;;;;;5054738;28;20067;-70
2022/08/10 11:21:03;;;;;;;4.72;1.35;;;27.50;92.20;;;;;;5055414;28;20060;-70
2022/08/10 11:23:47;;;;;;;4.07;1.30;;;27.70;91.90;;;;;;5054667;28;20053;-70
2022/08/10 11:26:25;;;;;;;3.38;0.95;;;27.90;91.80;;;;;;5054886;28;20060;-71
2022/08/10 11:29:01;;;;;;;1.55;0.85;;;27.90;91.10;;;;;;5055311;28;20045;-70
2022/08/10 11:31:42;;;;;;;1.40;0.80;;;27.80;91.00;;;;;;5068965;28;20059;-69
2022/08/10 11:34:20;;;;;;;3.80;1.23;;;27.90;90.90;;;;;;5074206;28;20476;-70
2022/08/10 11:37:04;;;;;;;3.50;0.93;;;27.90;91.20;;;;;;5074619;28;20111;-70
2022/08/10 11:39:50;;;;;;;3.03;1.05;;;28.00;90.80;;;;;;5074488;28;20078;-70
2022/08/10 11:42:42;;;;;;;6.53;1.05;;;28.00;91.10;;;;;;5076836;28;20105;-70
2022/08/10 11:45:20;;;;;;;2.17;0.82;;;28.10;91.10;;;;;;5072189;28;20116;-70
2022/08/10 11:47:51;;;;;;;5.13;1.10;;;28.30;91.10;;;;;;5058358;28;20060;-70
2022/08/10 11:50:55;;;;;;;1.52;1.00;;;28.40;91.10;;;;;;5057981;28;20041;-70
2022/08/10 11:53:22;;;;;;;;;;;28.40;90.50;;;;;;5050126;28;20468;-70
2022/08/10 11:55:53;;;;;;;2.03;0.77;;;28.40;90.00;;;;;;5058182;28;19920;-70
2022/08/10 12:01:08;;;;;;;2.05;0.98;;;28.20;90.40;;;;;;5057856;28;20057;-70
2022/08/10 12:03:36;;;;;;;2.90;1.17;;;28.00;90.30;;;;;;5057488;28;20055;-70
2022/08/10 12:06:07;;;;;;;4.25;1.10;;;28.00;90.80;;;;;;5038547;28;20162;-70
2022/08/10 12:08:33;;;;;;;1.92;0.85;;;27.90;90.70;;;;;;5038193;28;20202;-71
2022/08/10 12:10:59;;;;;;;3.53;1.58;;;28.00;91.20;;;;;;5038739;28;20161;-70
2022/08/10 12:13:29;;;;;;;3.38;0.98;;;28.00;91.30;;;;;;5037963;28;20068;-70
2022/08/10 12:16:05;;;;;;;7.32;1.10;;;28.20;91.40;;;;;;5037830;28;20067;-70
2022/08/10 12:18:34;;;;;;;6.63;1.52;;;28.20;90.90;;;;;;5052086;28;20044;-70
2022/08/10 12:21:10;;;;;;;1.67;0.82;;;28.40;91.20;;;;;;5057668;28;20369;-70
2022/08/10 12:23:44;;;;;;;2.58;1.00;;;28.40;91.00;;;;;;5057374;28;20130;-71
2022/08/10 12:26:17;;;;;;;1.90;1.10;;;28.50;90.70;;;;;;5057065;28;20457;-70
2022/08/10 12:29:05;;;;;;;2.13;0.90;;;28.60;90.50;;;;;;5057342;28;20135;-70
2022/08/10 12:31:39;;;;;;;3.38;1.25;;;28.70;90.20;;;;;;5057438;28;20041;-71
2022/08/10 12:34:17;;;;;;;4.03;1.02;;;28.70;90.60;;;;;;5056942;28;20049;-70
2022/08/10 12:36:49;;;;;;;4.07;1.20;;;28.90;90.60;;;;;;5057213;28;20106;-70
2022/08/10 12:39:27;;;;;;;2.65;1.10;;;28.90;90.30;;;;;;5057675;28;20045;-70
2022/08/10 12:42:05;;;;;;;1.95;0.80;;;28.70;90.20;;;;;;5057196;28;20076;-70
2022/08/10 12:44:53;;;;;;;3.72;0.88;;;28.60;90.10;;;;;;5056989;28;20123;-70
2022/08/10 12:47:38;;;;;;;1.95;0.85;;;28.70;90.10;;;;;;5056611;28;20045;-70
2022/08/10 12:50:11;;;;;;;3.90;1.08;;;28.60;90.10;;;;;;5057025;28;20469;-71
2022/08/10 12:52:55;;;;;;;2.85;1.30;;;28.70;90.50;;;;;;5057156;28;20088;-69
2022/08/10 12:55:23;;;;;;;3.15;0.90;;;28.60;90.30;;;;;;5057125;28;20047;-70
2022/08/10 12:57:52;;;;;;;2.97;1.00;;;28.70;90.60;;;;;;5056867;28;20045;-70
2022/08/10 13:00:18;;;;;;;2.53;1.00;;;28.80;90.30;;;;;;5056821;28;20091;-70
2022/08/10 13:02:45;;;;;;;4.00;0.90;;;28.80;89.70;;;;;;5056056;28;20389;-70
2022/08/10 13:05:13;;;;;;;2.85;1.05;;;28.70;90.60;;;;;;5056577;28;20069;-70
2022/08/10 13:07:42;;;;;;;3.60;1.38;;;28.70;90.70;;;;;;5056023;28;20049;-70
2022/08/10 13:10:13;;;;;;;1.70;0.80;;;28.70;90.40;;;;;;5057012;28;20064;-70
2022/08/10 13:12:43;;;;;;;1.70;0.82;;;28.70;90.50;;;;;;5056968;28;20365;-70
2022/08/10 13:15:19;;;;;;;2.08;1.00;;;28.80;90.40;;;;;;5056483;28;20040;-71
2022/08/10 13:17:48;;;;;;;2.10;1.02;;;28.90;89.80;;;;;;5056745;28;20052;-70